Time;durP1;ratioP1;P1;durP2;ratioP2;P2;SDS_P1;SDS_P2;PMS_P1;PMS_P2;Temp;Humidity;BMP_temperature;BMP_pressure;BME280_temperature;BME280_humidity;BME280_pressure;Samples;Min_cycle;Max_cycle;Signal;HPM_P1;HPM_P2
2022/04/03 00:00:46;;;;;;;;;;;4.40;79.50;;;;;;4994284;28;19949;-68
2022/04/03 00:03:12;;;;;;;;;;;4.40;79.30;;;;;;4995258;28;20413;-69
2022/04/03 00:05:39;;;;;;;;;;;4.40;79.20;;;;;;4977857;28;19910;-69
2022/04/03 00:08:06;;;;;;;;;;;4.40;79.10;;;;;;4995084;28;20370;-69
2022/04/03 00:10:33;;;;;;;;;;;4.40;78.80;;;;;;4995569;28;20349;-68
2022/04/03 00:12:59;;;;;;;;;;;4.40;78.60;;;;;;4995155;28;20008;-68
2022/04/03 00:15:24;;;;;;;;;;;4.30;78.90;;;;;;4995538;28;19992;-69
2022/04/03 00:17:50;;;;;;;;;;;4.30;79.40;;;;;;4995013;28;19917;-69
2022/04/03 00:20:16;;;;;;;;;;;4.30;79.50;;;;;;4995066;28;19910;-69
2022/04/03 00:22:47;;;;;;;;;;;4.30;79.50;;;;;;4995176;28;19910;-69
2022/04/03 00:25:14;;;;;;;;;;;4.30;79.50;;;;;;4995015;28;19914;-68
2022/04/03 00:27:40;;;;;;;;;;;4.30;79.60;;;;;;4994866;28;19920;-69
2022/04/03 00:30:07;;;;;;;;;;;4.30;79.70;;;;;;4995060;28;20004;-69
2022/04/03 00:32:33;;;;;;;;;;;4.30;79.80;;;;;;4994751;28;19937;-69
2022/04/03 00:34:58;;;;;;;;;;;4.30;79.80;;;;;;4994769;28;19910;-69
2022/04/03 00:37:24;;;;;;;;;;;4.30;79.90;;;;;;4994812;28;19921;-69
2022/04/03 00:39:50;;;;;;;;;;;4.30;80.20;;;;;;4994697;28;20421;-69
2022/04/03 00:42:16;;;;;;;;;;;4.20;80.40;;;;;;4994605;28;20001;-69
2022/04/03 00:44:42;;;;;;;;;;;4.20;80.50;;;;;;4994563;28;19910;-68
2022/04/03 00:47:08;;;;;;;;;;;4.20;80.30;;;;;;4994366;28;19910;-69
2022/04/03 00:49:34;;;;;;;;;;;4.20;80.50;;;;;;4993686;28;19911;-68
2022/04/03 00:52:00;;;;;;;;;;;4.20;80.70;;;;;;4994471;28;19914;-67
2022/04/03 00:54:26;;;;;;;;;;;4.20;80.20;;;;;;4994549;28;19916;-68
2022/04/03 00:56:52;;;;;;;;;;;4.20;80.00;;;;;;4976789;28;19933;-69
2022/04/03 00:59:18;;;;;;;;;;;4.10;79.90;;;;;;4994300;28;20388;-68
2022/04/03 01:01:45;;;;;;;;;;;4.10;80.10;;;;;;4994063;28;19994;-66
2022/04/03 01:04:11;;;;;;;;;;;4.10;80.70;;;;;;4994317;28;20211;-67
2022/04/03 01:06:37;;;;;;;;;;;4.10;80.50;;;;;;4976642;28;19910;-69
2022/04/03 01:09:03;;;;;;;;;;;4.10;79.60;;;;;;4994159;28;19913;-67
2022/04/03 01:11:30;;;;;;;;;;;4.10;79.60;;;;;;4994183;28;19936;-68
2022/04/03 01:13:56;;;;;;;;;;;4.00;79.20;;;;;;4993979;28;20416;-68
2022/04/03 01:16:22;;;;;;;;;;;4.10;79.10;;;;;;4976403;28;19968;-68
2022/04/03 01:18:49;;;;;;;;;;;4.10;79.10;;;;;;4994116;28;20029;-68
2022/04/03 01:21:16;;;;;;;;;;;4.00;79.10;;;;;;4994390;28;19929;-69
2022/04/03 01:23:43;;;;;;;;;;;4.00;78.80;;;;;;4993824;28;19937;-69
2022/04/03 01:26:10;;;;;;;;;;;4.00;78.80;;;;;;4994057;28;19917;-69
2022/04/03 01:28:35;;;;;;;;;;;4.00;78.90;;;;;;4993747;28;20351;-69
2022/04/03 01:31:01;;;;;;;;;;;4.00;78.40;;;;;;4993701;28;19956;-69
2022/04/03 01:33:27;;;;;;;;;;;4.00;78.70;;;;;;4993650;28;20355;-68
2022/04/03 01:35:53;;;;;;;;;;;3.90;78.40;;;;;;4993731;28;19996;-69
2022/04/03 01:38:18;;;;;;;;;;;4.00;78.50;;;;;;4993563;28;19984;-67
2022/04/03 01:40:44;;;;;;;;;;;4.00;78.10;;;;;;4993628;28;19909;-69
2022/04/03 01:43:10;;;;;;;;;;;3.90;78.00;;;;;;4993647;28;19914;-69
2022/04/03 01:45:37;;;;;;;;;;;3.90;78.20;;;;;;4993570;28;19910;-70
2022/04/03 01:48:03;;;;;;;;;;;3.90;78.40;;;;;;4993566;28;19963;-69
2022/04/03 01:50:29;;;;;;;;;;;3.80;78.50;;;;;;4993597;28;19921;-67
2022/04/03 01:52:55;;;;;;;;;;;3.90;78.30;;;;;;4993464;28;19906;-69
2022/04/03 01:55:21;;;;;;;;;;;3.80;78.20;;;;;;4993503;28;19913;-68
2022/04/03 01:57:47;;;;;;;;;;;3.80;78.30;;;;;;4975963;28;20374;-68
2022/04/03 02:00:12;;;;;;;;;;;3.80;78.10;;;;;;4993480;28;19910;-69
2022/04/03 02:02:38;;;;;;;;;;;3.80;78.10;;;;;;4993425;28;19972;-69
2022/04/03 02:05:05;;;;;;;;;;;3.80;78.30;;;;;;4993212;28;19918;-69
2022/04/03 02:07:32;;;;;;;;;;;3.70;78.50;;;;;;4993293;28;20381;-69
2022/04/03 02:09:59;;;;;;;;;;;3.80;78.90;;;;;;5007765;23;20015;-70
2022/04/03 02:12:25;;;;;;;;;;;3.70;78.60;;;;;;4992997;28;19909;-70
2022/04/03 02:14:50;;;;;;;;;;;3.70;78.60;;;;;;4993230;28;19916;-69
2022/04/03 02:17:16;;;;;;;;;;;3.70;78.20;;;;;;4993082;28;19968;-70
2022/04/03 02:19:42;;;;;;;;;;;3.70;78.50;;;;;;4993259;28;20362;-70
2022/04/03 02:22:09;;;;;;;;;;;3.70;78.70;;;;;;4991944;28;19910;-70
2022/04/03 02:24:35;;;;;;;;;;;3.70;78.60;;;;;;4993180;28;19968;-70
2022/04/03 02:27:01;;;;;;;;;;;3.60;78.40;;;;;;4992883;28;20306;-70
2022/04/03 02:29:27;;;;;;;;;;;3.60;78.70;;;;;;4993051;28;19909;-70
2022/04/03 02:31:53;;;;;;;;;;;3.60;78.70;;;;;;4992997;28;19910;-69
2022/04/03 02:34:19;;;;;;;;;;;3.60;79.10;;;;;;4993195;28;19917;-69
2022/04/03 02:36:45;;;;;;;;;;;3.60;79.40;;;;;;4991858;28;19963;-70
2022/04/03 02:39:12;;;;;;;;;;;3.60;79.10;;;;;;4993064;28;20033;-70
2022/04/03 02:41:38;;;;;;;;;;;3.60;79.40;;;;;;4993024;28;19917;-69
2022/04/03 02:44:04;;;;;;;;;;;3.60;79.30;;;;;;4993048;28;19909;-70
2022/04/03 02:46:30;;;;;;;;;;;3.60;79.40;;;;;;4992763;28;19910;-70
2022/04/03 02:48:56;;;;;;;;;;;3.50;79.60;;;;;;4992939;28;19933;-70
2022/04/03 02:51:23;;;;;;;;;;;3.50;79.70;;;;;;4992724;28;19969;-70
2022/04/03 02:53:48;;;;;;;;;;;3.60;79.80;;;;;;4992725;28;19910;-69
2022/04/03 02:56:14;;;;;;;;;;;3.60;79.50;;;;;;4992580;28;20011;-69
2022/04/03 02:58:40;;;;;;;;;;;3.50;79.50;;;;;;4992284;28;19914;-70
2022/04/03 03:01:06;;;;;;;;;;;3.40;79.80;;;;;;4992387;28;20370;-70
2022/04/03 03:03:32;;;;;;;;;;;3.40;79.90;;;;;;4992240;28;19913;-69
2022/04/03 03:05:58;;;;;;;;;;;3.30;80.10;;;;;;4992334;28;20251;-70
2022/04/03 03:08:24;;;;;;;;;;;3.20;80.40;;;;;;4992116;28;19948;-69
2022/04/03 03:10:50;;;;;;;;;;;3.30;80.50;;;;;;4992448;28;19917;-70
2022/04/03 03:13:16;;;;;;;;;;;3.20;81.00;;;;;;4974669;28;20008;-69
2022/04/03 03:15:42;;;;;;;;;;;3.10;81.00;;;;;;4992749;28;20008;-69
2022/04/03 03:18:08;;;;;;;;;;;3.20;81.40;;;;;;4992023;28;20290;-70
2022/04/03 03:20:34;;;;;;;;;;;3.20;81.50;;;;;;4992289;28;19917;-69
2022/04/03 03:23:00;;;;;;;;;;;3.20;80.80;;;;;;4992125;28;19914;-69
2022/04/03 03:25:26;;;;;;;;;;;3.20;81.10;;;;;;4995369;28;19964;-69
2022/04/03 03:27:52;;;;;;;;;;;3.20;81.00;;;;;;4996101;28;20362;-70
2022/04/03 03:30:18;;;;;;;;;;;3.10;80.60;;;;;;4996189;28;19914;-70
2022/04/03 03:32:44;;;;;;;;;;;3.10;81.20;;;;;;4996370;28;19906;-70
2022/04/03 03:35:10;;;;;;;;;;;3.10;81.00;;;;;;4996578;28;19959;-70
2022/04/03 03:37:37;;;;;;;;;;;3.00;80.80;;;;;;4996072;28;19921;-70
2022/04/03 03:40:03;;;;;;;;;;;3.10;80.90;;;;;;4996421;28;20016;-70
2022/04/03 03:42:29;;;;;;;;;;;3.00;81.20;;;;;;4995851;28;20293;-69
2022/04/03 03:44:55;;;;;;;;;;;3.00;81.40;;;;;;4995934;28;19910;-70
2022/04/03 03:47:21;;;;;;;;;;;3.10;81.50;;;;;;4996023;28;20317;-70
2022/04/03 03:49:47;;;;;;;;;;;3.10;81.70;;;;;;4996103;28;19909;-70
2022/04/03 03:52:12;;;;;;;;;;;2.90;81.60;;;;;;4995819;28;19917;-70
2022/04/03 03:54:38;;;;;;;;;;;2.90;81.60;;;;;;4996128;28;19910;-70
2022/04/03 03:57:04;;;;;;;;;;;2.90;81.90;;;;;;4995674;28;20374;-70
2022/04/03 03:59:30;;;;;;;;;;;2.80;82.00;;;;;;4996017;28;20377;-70
2022/04/03 04:01:56;;;;;;;;;;;2.80;82.30;;;;;;4995843;28;19909;-70
2022/04/03 04:04:22;;;;;;;;;;;2.80;82.20;;;;;;4995944;28;19916;-70
2022/04/03 04:06:48;;;;;;;;;;;2.80;82.10;;;;;;4995390;28;19917;-70
2022/04/03 04:09:14;;;;;;;;;;;2.80;82.40;;;;;;4995412;28;20325;-70
2022/04/03 04:11:40;;;;;;;;;;;2.80;82.50;;;;;;4995468;28;19914;-70
2022/04/03 04:14:06;;;;;;;;;;;2.80;82.40;;;;;;4995617;28;19968;-70
2022/04/03 04:16:31;;;;;;;;;;;2.80;82.40;;;;;;4995499;28;19918;-70
2022/04/03 04:18:57;;;;;;;;;;;2.70;82.60;;;;;;4995453;28;20366;-70
2022/04/03 04:21:23;;;;;;;;;;;2.70;82.60;;;;;;4995524;28;19910;-70
2022/04/03 04:23:49;;;;;;;;;;;2.70;82.50;;;;;;4995486;28;19984;-69
2022/04/03 04:26:15;;;;;;;;;;;2.70;82.80;;;;;;4995168;28;19909;-70
2022/04/03 04:28:41;;;;;;;;;;;2.50;83.00;;;;;;4977637;28;19964;-70
2022/04/03 04:31:07;;;;;;;;;;;2.60;83.20;;;;;;4995288;28;19980;-70
2022/04/03 04:33:33;;;;;;;;;;;2.50;83.10;;;;;;4995019;28;19909;-69
2022/04/03 04:35:59;;;;;;;;;;;2.50;83.20;;;;;;4994707;28;19940;-70
2022/04/03 04:38:25;;;;;;;;;;;2.60;83.40;;;;;;4995233;28;20119;-69
2022/04/03 04:40:51;;;;;;;;;;;2.60;83.30;;;;;;4995201;28;19913;-70
2022/04/03 04:43:17;;;;;;;;;;;2.50;83.70;;;;;;4995127;28;20116;-70
2022/04/03 04:45:43;;;;;;;;;;;2.50;83.80;;;;;;4995111;28;19914;-70
2022/04/03 04:48:09;;;;;;;;;;;2.40;83.50;;;;;;4994963;28;19906;-70
2022/04/03 04:50:34;;;;;;;;;;;2.40;84.10;;;;;;4995043;28;19992;-70
2022/04/03 04:53:00;;;;;;;;;;;2.40;84.60;;;;;;4994790;28;20328;-70
2022/04/03 04:55:26;;;;;;;;;;;2.40;84.70;;;;;;4994550;28;20383;-70
2022/04/03 04:57:53;;;;;;;;;;;2.30;85.20;;;;;;4977413;28;20396;-70
2022/04/03 05:00:20;;;;;;;;;;;2.30;85.20;;;;;;4995023;28;19957;-70
2022/04/03 05:02:46;;;;;;;;;;;2.30;85.40;;;;;;4995009;28;20197;-70
2022/04/03 05:05:14;;;;;;;;;;;2.40;85.30;;;;;;4994783;28;19988;-70
2022/04/03 05:07:40;;;;;;;;;;;2.40;85.10;;;;;;4994582;28;19920;-70
2022/04/03 05:10:06;;;;;;;;;;;2.40;84.80;;;;;;4994572;28;19953;-70
2022/04/03 05:12:34;;;;;;;;;;;2.30;84.40;;;;;;4977105;28;19918;-70
2022/04/03 05:15:03;;;;;;;;;;;2.40;84.30;;;;;;4994745;28;20016;-70
2022/04/03 05:17:29;;;;;;;;;;;2.50;83.80;;;;;;4994175;28;19918;-70
2022/04/03 05:19:55;;;;;;;;;;;2.50;83.50;;;;;;4994604;28;20028;-70
2022/04/03 05:22:23;;;;;;;;;;;2.50;83.30;;;;;;4994296;28;20378;-70
2022/04/03 05:24:49;;;;;;;;;;;2.50;83.20;;;;;;4994500;28;20008;-70
2022/04/03 05:27:15;;;;;;;;;;;2.60;83.20;;;;;;4992933;28;19949;-71
2022/04/03 05:29:41;;;;;;;;;;;2.50;83.70;;;;;;4994193;28;19910;-70
2022/04/03 05:32:07;;;;;;;;;;;2.50;83.70;;;;;;4994192;28;19957;-70
2022/04/03 05:34:33;;;;;;;;;;;2.40;83.80;;;;;;4994135;28;20381;-70
2022/04/03 05:36:58;;;;;;;;;;;2.40;83.70;;;;;;4993757;28;19913;-71
2022/04/03 05:39:24;;;;;;;;;;;2.30;84.90;;;;;;4993878;28;19913;-72
2022/04/03 05:41:54;;;;;;;;;;;2.30;85.80;;;;;;4976599;28;19945;-70
2022/04/03 05:44:20;;;;;;;;;;;2.30;85.80;;;;;;4994233;28;19914;-70
2022/04/03 05:46:46;;;;;;;;;;;2.30;86.30;;;;;;4992864;28;19957;-70
2022/04/03 05:49:11;;;;;;;;;;;2.30;86.50;;;;;;4993666;28;19910;-71
2022/04/03 05:51:37;;;;;;;;;;;2.30;87.20;;;;;;4993450;28;19910;-71
2022/04/03 05:54:03;;;;;;;;;;;2.30;87.10;;;;;;4976099;28;20507;-71
2022/04/03 05:56:31;;;;;;;;;;;2.30;86.60;;;;;;4993304;28;19931;-70
2022/04/03 05:58:57;;;;;;;;;;;2.30;86.60;;;;;;4976316;28;19909;-70
2022/04/03 06:01:23;;;;;;;;;;;2.30;86.30;;;;;;4993410;28;19909;-70
2022/04/03 06:03:49;;;;;;;;;;;2.40;86.20;;;;;;4993486;28;19988;-70
2022/04/03 06:06:15;;;;;;;;;;;2.40;85.80;;;;;;4992087;28;19964;-70
2022/04/03 06:08:41;;;;;;;;;;;2.30;85.80;;;;;;4993120;28;19913;-70
2022/04/03 06:11:07;;;;;;;;;;;2.40;86.30;;;;;;4993633;28;20026;-70
2022/04/03 06:13:33;;;;;;;;;;;2.50;86.00;;;;;;4993546;28;19910;-71
2022/04/03 06:15:59;;;;;;;;;;;2.60;86.00;;;;;;4993480;28;19909;-70
2022/04/03 06:18:24;;;;;;;;;;;2.50;85.80;;;;;;4993116;28;20450;-71
2022/04/03 06:20:51;;;;;;;;;;;2.60;85.40;;;;;;4993309;28;19918;-72
2022/04/03 06:23:18;;;;;;;;;;;2.60;84.50;;;;;;4975917;28;19963;-70
2022/04/03 06:25:44;;;;;;;;;;;2.70;84.10;;;;;;4993392;28;19945;-70
2022/04/03 06:28:10;;;;;;;;;;;2.80;84.40;;;;;;4992082;28;20586;-70
2022/04/03 06:30:36;;;;;;;;;;;2.80;83.60;;;;;;4993251;28;19916;-70
2022/04/03 06:33:01;;;;;;;;;;;2.80;83.80;;;;;;4992802;28;19910;-70
2022/04/03 06:35:27;;;;;;;;;;;3.00;83.30;;;;;;4992722;28;19917;-70
2022/04/03 06:37:53;;;;;;;;;;;3.00;82.80;;;;;;4992609;28;19921;-71
2022/04/03 06:40:19;;;;;;;;;;;3.10;82.10;;;;;;4992806;28;20367;-71
2022/04/03 06:42:45;;;;;;;;;;;3.10;81.80;;;;;;4992734;28;19952;-70
2022/04/03 06:45:11;;;;;;;;;;;3.20;81.40;;;;;;4992501;28;19910;-71
2022/04/03 06:47:37;;;;;;;;;;;3.20;80.40;;;;;;4992367;28;19992;-71
2022/04/03 06:50:04;;;;;;;;;;;3.30;80.40;;;;;;4992911;28;20004;-70
2022/04/03 06:52:30;;;;;;;;;;;3.40;80.10;;;;;;4992613;28;19914;-71
2022/04/03 06:54:56;;;;;;;;;;;3.40;79.40;;;;;;4992865;28;20409;-72
2022/04/03 06:57:21;;;;;;;;;;;3.50;78.30;;;;;;4992626;28;19957;-70
2022/04/03 06:59:47;;;;;;;;;;;3.50;78.90;;;;;;4992705;28;19933;-71
2022/04/03 07:02:13;;;;;;;;;;;3.50;78.40;;;;;;4992773;28;19922;-70
2022/04/03 07:04:39;;;;;;;;;;;3.50;78.50;;;;;;4992332;28;19952;-71
2022/04/03 07:07:05;;;;;;;;;;;3.60;78.90;;;;;;4992260;28;19964;-71
2022/04/03 07:09:30;;;;;;;;;;;3.60;79.00;;;;;;4974771;28;20362;-71
2022/04/03 07:11:57;;;;;;;;;;;3.70;78.80;;;;;;4992492;28;19910;-71
2022/04/03 07:14:22;;;;;;;;;;;3.80;78.60;;;;;;4992596;28;20267;-70
2022/04/03 07:16:48;;;;;;;;;;;3.80;78.50;;;;;;4992393;28;19921;-70
2022/04/03 07:19:14;;;;;;;;;;;3.80;78.40;;;;;;4975073;28;20362;-70
2022/04/03 07:21:40;;;;;;;;;;;3.80;78.60;;;;;;4992651;28;19916;-70
2022/04/03 07:24:06;;;;;;;;;;;3.90;78.90;;;;;;4991837;28;19916;-69
2022/04/03 07:26:32;;;;;;;;;;;3.90;78.70;;;;;;4974949;28;19910;-70
2022/04/03 07:28:58;;;;;;;;;;;4.00;79.10;;;;;;4992239;28;20397;-69
2022/04/03 07:31:25;;;;;;;;;;;4.00;79.80;;;;;;4992165;28;19947;-70
2022/04/03 07:33:51;;;;;;;;;;;4.00;80.30;;;;;;4992158;28;20367;-70
2022/04/03 07:36:17;;;;;;;;;;;4.10;80.50;;;;;;4992530;28;19910;-69
2022/04/03 07:38:43;;;;;;;;;;;4.10;80.70;;;;;;4992224;28;19997;-70
2022/04/03 07:41:09;;;;;;;;;;;4.10;80.60;;;;;;4991292;28;19953;-70
2022/04/03 07:43:34;;;;;;;;;;;4.20;81.20;;;;;;4974946;28;19916;-70
2022/04/03 07:46:00;;;;;;;;;;;4.30;81.30;;;;;;4992402;28;19920;-70
2022/04/03 07:48:26;;;;;;;;;;;4.30;81.50;;;;;;4992175;28;19917;-70
2022/04/03 07:50:52;;;;;;;;;;;4.30;82.10;;;;;;4974773;28;19921;-70
2022/04/03 07:53:18;;;;;;;;;;;4.20;81.80;;;;;;4992247;28;19910;-69
2022/04/03 07:55:43;;;;;;;;;;;4.30;82.10;;;;;;4992511;28;19994;-69
2022/04/03 07:58:09;;;;;;;;;;;4.30;82.00;;;;;;4974430;28;20354;-69
2022/04/03 08:00:35;;;;;;;;;;;4.40;81.80;;;;;;4992206;28;19913;-71
2022/04/03 08:03:01;;;;;;;;;;;4.40;81.40;;;;;;4974433;28;19909;-70
2022/04/03 08:05:27;;;;;;;;;;;4.40;81.00;;;;;;4992237;28;19910;-70
2022/04/03 08:07:55;;;;;;;;;;;4.50;80.30;;;;;;4992062;28;19916;-69
2022/04/03 08:10:21;;;;;;;;;;;4.50;79.80;;;;;;5008218;23;19949;-66
2022/04/03 08:12:48;;;;;;;;;;;4.40;78.90;;;;;;4978305;28;19937;-67
2022/04/03 08:15:14;;;;;;;;;;;4.50;79.40;;;;;;4995798;28;19910;-67
2022/04/03 08:17:41;;;;;;;;;;;4.60;78.30;;;;;;4995609;28;20280;-66
2022/04/03 08:20:08;;;;;;;;;;;4.60;76.60;;;;;;4995694;28;20438;-66
2022/04/03 08:22:35;;;;;;;;;;;4.70;77.10;;;;;;4994763;28;19910;-67
2022/04/03 08:25:01;;;;;;;;;;;4.80;75.00;;;;;;4995736;28;19909;-67
2022/04/03 08:27:46;;;;;;;;;;;4.80;75.80;;;;;;4995655;28;19981;-67
2022/04/03 08:30:13;;;;;;;;;;;4.80;75.70;;;;;;4995432;28;19982;-66
2022/04/03 08:32:39;;;;;;;;;;;4.90;75.10;;;;;;4995302;28;19917;-67
2022/04/03 08:35:05;;;;;;;;;;;5.00;73.50;;;;;;4995536;28;20429;-67
2022/04/03 08:37:31;;;;;;;;;;;5.10;72.70;;;;;;4995239;28;19913;-67
2022/04/03 08:39:57;;;;;;;;;;;5.20;71.90;;;;;;4995252;28;19972;-68
2022/04/03 08:42:23;;;;;;;;;;;5.20;71.00;;;;;;4995028;28;20377;-68
2022/04/03 08:44:49;;;;;;;;;;;5.30;71.10;;;;;;4995018;28;19909;-67
2022/04/03 08:47:19;;;;;;;;;;;5.30;71.30;;;;;;4995246;28;20362;-67
2022/04/03 08:49:46;;;;;;;;;;;5.30;71.80;;;;;;4995047;28;19953;-67
2022/04/03 08:52:12;;;;;;;;;;;5.30;72.10;;;;;;4993707;28;19916;-67
2022/04/03 08:54:38;;;;;;;;;;;5.40;71.30;;;;;;4994930;28;19910;-67
2022/04/03 08:57:04;;;;;;;;;;;5.40;69.80;;;;;;4994479;28;19914;-67
2022/04/03 08:59:30;;;;;;;;;;;5.40;70.00;;;;;;4995089;28;20009;-67
2022/04/03 09:01:56;;;;;;;;;;;5.40;71.30;;;;;;4995093;28;20004;-67
2022/04/03 09:04:22;;;;;;;;;;;5.40;71.60;;;;;;4994746;28;20490;-67
2022/04/03 09:06:55;;;;;;;;;;;5.40;71.80;;;;;;4994625;28;19916;-69
2022/04/03 09:09:22;;;;;;;;;;;5.40;72.20;;;;;;4977505;28;20373;-68
2022/04/03 09:12:05;;;;;;;;;;;5.40;70.60;;;;;;4994649;28;20332;-67
2022/04/03 09:14:30;;;;;;;;;;;5.30;70.60;;;;;;4994706;28;19910;-67
2022/04/03 09:16:56;;;;;;;;;;;5.20;71.10;;;;;;4994543;28;20290;-68
2022/04/03 09:19:33;;;;;;;;;;;5.20;71.30;;;;;;4994589;28;19909;-68
2022/04/03 09:21:59;;;;;;;;;;;5.30;71.30;;;;;;4994491;28;20359;-68
2022/04/03 09:24:25;;;;;;;;;;;5.20;71.50;;;;;;4994650;28;19964;-65
2022/04/03 09:26:57;;;;;;;;;;;5.20;72.10;;;;;;4994373;28;20242;-66
2022/04/03 09:29:23;;;;;;;;;;;5.20;71.50;;;;;;4994410;28;20378;-67
2022/04/03 09:31:56;;;;;;;;;;;5.20;71.90;;;;;;4994171;28;20134;-67
2022/04/03 09:34:24;;;;;;;;;;;5.20;71.30;;;;;;4994309;28;20008;-67
2022/04/03 09:36:55;;;;;;;;;;;5.10;71.10;;;;;;4993878;28;20370;-68
2022/04/03 09:39:24;;;;;;;;;;;5.10;69.10;;;;;;4992935;28;20294;-68
2022/04/03 09:42:00;;;;;;;;;;;5.20;68.20;;;;;;4993914;28;19914;-67
2022/04/03 09:44:31;;;;;;;;;;;5.20;68.90;;;;;;4993740;28;19952;-67
2022/04/03 09:47:17;;;;;;;;;;;5.20;71.20;;;;;;4993478;28;19916;-68
2022/04/03 09:49:53;;;;;;;;;;;5.20;71.20;;;;;;4993084;28;19909;-66
2022/04/03 09:52:35;;;;;;;;;;;5.20;72.40;;;;;;4992058;28;19910;-67
2022/04/03 09:55:06;;;;;;;;;;;5.20;72.20;;;;;;4993206;28;20000;-66
2022/04/03 09:57:32;;;;;;;;;;;5.30;72.90;;;;;;4993308;28;19913;-68
2022/04/03 09:59:58;;;;;;;;;;;5.40;73.20;;;;;;4993238;28;19909;-68
2022/04/03 10:02:24;;;;;;;;;;;5.30;73.10;;;;;;4993353;28;19910;-66
2022/04/03 10:04:53;;;;;;;;;;;5.30;73.60;;;;;;4993178;28;19913;-65
2022/04/03 10:07:20;;;;;;;;;;;5.30;74.10;;;;;;4993129;28;20385;-66
2022/04/03 10:09:47;;;;;;;;;;;5.40;73.30;;;;;;4993058;28;19913;-67
2022/04/03 10:12:14;;;;;;;;;;;5.40;73.50;;;;;;4992941;28;20087;-66
2022/04/03 10:14:40;;;;;;;;;;;5.50;74.10;;;;;;4993086;28;20008;-66
2022/04/03 10:17:07;;;;;;;;;;;5.50;74.40;;;;;;4992778;28;19922;-67
2022/04/03 10:19:33;;;;;;;;;;;5.50;75.00;;;;;;4993094;28;19910;-67
2022/04/03 10:22:00;;;;;;;;;;;5.50;75.70;;;;;;4993237;28;19909;-68
2022/04/03 10:24:27;;;;;;;;;;;5.50;76.50;;;;;;4992944;28;19920;-68
2022/04/03 10:26:59;;;;;;;;;;;5.50;75.90;;;;;;4975171;28;19910;-68
2022/04/03 10:29:25;;;;;;;;;;;5.50;75.80;;;;;;4992589;28;19916;-68
2022/04/03 10:31:55;;;;;;;;;;;5.50;76.00;;;;;;4992616;28;19909;-67
2022/04/03 10:34:21;;;;;;;;;;;5.50;75.40;;;;;;4992435;28;19909;-67
2022/04/03 10:36:49;;;;;;;;;;;5.50;76.10;;;;;;4992406;28;19914;-67
2022/04/03 10:39:22;;;;;;;;;;;5.50;76.70;;;;;;4959321;28;20008;-67
2022/04/03 10:41:47;;;;;;;;;;;5.50;76.70;;;;;;4992979;28;19956;-67
2022/04/03 10:44:24;;;;;;;;;;;5.60;77.70;;;;;;4992765;28;20412;-68
2022/04/03 10:47:02;;;;;;;;;;;5.60;77.60;;;;;;4992245;28;19914;-68
2022/04/03 10:49:46;;;;;;;;;;;5.70;77.50;;;;;;4992601;28;19917;-67
2022/04/03 10:52:21;;;;;;;;;;;5.60;77.30;;;;;;4992563;28;19916;-66
2022/04/03 10:54:51;;;;;;;;;;;5.70;78.50;;;;;;4992441;28;19941;-68
2022/04/03 10:57:35;;;;;;;;;;;5.80;77.60;;;;;;4992111;28;19920;-68
2022/04/03 11:00:11;;;;;;;;;;;5.90;77.60;;;;;;4975316;28;19921;-66
2022/04/03 11:02:36;;;;;;;;;;;5.90;77.70;;;;;;4992369;28;20000;-66
2022/04/03 11:05:21;;;;;;;;;;;6.10;77.30;;;;;;4991555;28;20000;-68
2022/04/03 11:07:47;;;;;;;;;;;6.20;78.30;;;;;;4992683;28;19910;-66
2022/04/03 11:10:13;;;;;;;;;;;6.30;76.60;;;;;;4992126;28;20362;-66
2022/04/03 11:12:54;;;;;;;;;;;6.30;76.60;;;;;;4974618;28;20017;-67
2022/04/03 11:15:20;;;;;;;;;;;6.30;77.00;;;;;;4992161;28;19923;-65
2022/04/03 11:17:48;;;;;;;;;;;6.40;76.80;;;;;;4991977;28;19913;-66
2022/04/03 11:20:30;;;;;;;;;;;6.50;76.90;;;;;;4992286;28;19910;-66
2022/04/03 11:22:58;;;;;;;;;;;6.60;75.60;;;;;;4992065;28;19910;-67
2022/04/03 11:25:24;;;;;;;;;;;6.60;75.80;;;;;;4992117;28;20359;-67
2022/04/03 11:27:50;;;;;;;;;;;6.70;76.70;;;;;;4991873;28;19924;-67
2022/04/03 11:30:17;;;;;;;;;;;6.70;76.00;;;;;;4992082;28;19917;-67
2022/04/03 11:32:44;;;;;;;;;;;6.80;75.70;;;;;;4992277;28;20274;-67
2022/04/03 11:35:09;;;;;;;;;;;6.90;75.50;;;;;;4992157;28;19914;-67
2022/04/03 11:37:35;;;;;;;;;;;7.00;73.00;;;;;;4974330;28;19914;-67
2022/04/03 11:40:04;;;;;;;;;;;7.10;73.70;;;;;;4991904;28;19910;-67
2022/04/03 11:42:30;;;;;;;;;;;7.10;74.60;;;;;;4991776;28;19914;-67
2022/04/03 11:44:55;;;;;;;;;;;7.20;74.30;;;;;;4992509;28;19910;-67
2022/04/03 11:47:24;;;;;;;;;;;7.20;74.60;;;;;;4995642;28;19956;-68
2022/04/03 11:50:06;;;;;;;;;;;7.30;74.80;;;;;;4996042;28;20370;-68
2022/04/03 11:52:35;;;;;;;;;;;7.40;74.80;;;;;;4995660;28;20011;-66
2022/04/03 11:55:01;;;;;;;;;;;7.50;73.60;;;;;;4978296;28;19910;-67
2022/04/03 11:57:27;;;;;;;;;;;7.50;73.00;;;;;;4995376;28;20282;-66
2022/04/03 11:59:56;;;;;;;;;;;7.50;74.20;;;;;;4995446;28;19906;-68
2022/04/03 12:02:21;;;;;;;;;;;7.50;74.00;;;;;;4995521;28;20298;-68
2022/04/03 12:04:47;;;;;;;;;;;7.40;72.90;;;;;;4978106;28;19917;-67
2022/04/03 12:07:16;;;;;;;;;;;7.50;74.00;;;;;;4995304;28;20386;-68
2022/04/03 12:09:43;;;;;;;;;;;7.50;72.90;;;;;;4994111;28;20382;-68
2022/04/03 12:12:10;;;;;;;;;;;7.60;72.90;;;;;;4995151;28;19914;-67
2022/04/03 12:14:42;;;;;;;;;;;7.50;72.20;;;;;;4995762;28;19960;-67
2022/04/03 12:17:08;;;;;;;;;;;7.50;73.00;;;;;;4995339;28;19913;-67
2022/04/03 12:19:34;;;;;;;;;;;7.40;73.20;;;;;;4995669;28;20361;-67
2022/04/03 12:22:04;;;;;;;;;;;7.30;73.50;;;;;;4995298;28;19921;-67
2022/04/03 12:24:31;;;;;;;;;;;7.30;73.20;;;;;;4977837;28;19920;-68
2022/04/03 12:26:57;;;;;;;;;;;7.30;73.30;;;;;;4994851;28;19910;-68
2022/04/03 12:29:23;;;;;;;;;;;7.20;72.60;;;;;;4994916;28;19971;-68
2022/04/03 12:31:59;;;;;;;;;;;7.10;72.80;;;;;;4994988;28;19910;-68
2022/04/03 12:34:26;;;;;;;;;;;7.00;73.60;;;;;;4977940;28;20282;-68
2022/04/03 12:36:53;;;;;;;;;;;7.00;73.70;;;;;;4994631;28;20234;-67
2022/04/03 12:39:35;;;;;;;;;;;6.90;73.40;;;;;;4994849;28;20004;-68
2022/04/03 12:42:13;;;;;;;;;;;6.90;74.40;;;;;;4995390;28;19914;-68
2022/04/03 12:44:48;;;;;;;;;;;6.90;74.10;;;;;;4994668;28;19914;-70
2022/04/03 12:47:14;;;;;;;;;;;6.80;74.40;;;;;;4994534;28;19925;-70
2022/04/03 12:49:41;;;;;;;;;;;6.80;74.70;;;;;;4994967;28;19917;-70
2022/04/03 12:52:07;;;;;;;;;;;6.80;78.30;;;;;;4994598;28;19937;-70
2022/04/03 12:54:39;;;;;;;;;;;6.80;80.50;;;;;;4994957;28;19910;-69
2022/04/03 13:00:05;;;;;;;;;;;6.70;82.10;;;;;;4994485;28;19910;-69
2022/04/03 13:02:40;;;;;;;;;;;6.60;83.00;;;;;;4994341;28;19909;-70
2022/04/03 13:05:11;;;;;;;;;;;6.50;83.30;;;;;;4994398;28;19913;-69
2022/04/03 13:07:37;;;;;;;;;;;6.60;83.70;;;;;;4994362;28;20194;-70
2022/04/03 13:10:03;;;;;;;;;;;6.60;83.80;;;;;;4994607;28;19965;-70
2022/04/03 13:12:29;;;;;;;;;;;6.70;83.10;;;;;;4994563;28;19914;-69
2022/04/03 13:14:55;;;;;;;;;;;6.70;83.40;;;;;;4976919;28;19909;-69
2022/04/03 13:17:21;;;;;;;;;;;6.70;83.80;;;;;;4976583;28;20428;-70
2022/04/03 13:19:47;;;;;;;;;;;6.80;83.10;;;;;;4994263;28;19909;-69
2022/04/03 13:22:15;;;;;;;;;;;6.80;82.10;;;;;;4994401;28;19933;-69
2022/04/03 13:24:41;;;;;;;;;;;6.90;82.10;;;;;;4993961;28;19909;-69
2022/04/03 13:27:06;;;;;;;;;;;7.00;82.30;;;;;;4976467;28;19917;-69
2022/04/03 13:29:34;;;;;;;;;;;7.10;80.40;;;;;;4994110;28;19935;-67
2022/04/03 13:32:00;;;;;;;;;;;7.20;78.30;;;;;;4994120;28;19921;-68
2022/04/03 13:34:25;;;;;;;;;;;7.30;78.00;;;;;;4992655;28;19909;-68
2022/04/03 13:36:52;;;;;;;;;;;7.30;78.10;;;;;;4993795;28;19917;-68
2022/04/03 13:39:18;;;;;;;;;;;7.40;77.40;;;;;;4992790;28;19916;-68
2022/04/03 13:41:44;;;;;;;;;;;7.50;76.70;;;;;;4993779;28;19910;-68
2022/04/03 13:44:12;;;;;;;;;;;7.50;76.30;;;;;;4993647;28;19952;-68
2022/04/03 13:46:38;;;;;;;;;;;7.60;76.60;;;;;;4993835;28;20321;-69
2022/04/03 13:49:04;;;;;;;;;;;7.60;76.40;;;;;;4993568;28;20057;-69
2022/04/03 13:51:30;;;;;;;;;;;7.60;76.50;;;;;;4993658;28;20378;-69
2022/04/03 13:53:56;;;;;;;;;;;7.50;77.30;;;;;;4993591;28;19925;-67
2022/04/03 13:56:23;;;;;;;;;;;7.50;77.50;;;;;;4993519;28;19916;-68
2022/04/03 13:58:49;;;;;;;;;;;7.40;78.60;;;;;;4993366;28;19914;-67
2022/04/03 14:01:17;;;;;;;;;;;7.30;78.80;;;;;;4993282;28;19972;-70
2022/04/03 14:03:46;;;;;;;;;;;7.30;79.80;;;;;;4993173;28;19961;-67
2022/04/03 14:06:12;;;;;;;;;;;7.30;79.60;;;;;;4993337;28;19910;-68
2022/04/03 14:08:37;;;;;;;;;;;7.20;80.50;;;;;;4992434;28;19957;-69
2022/04/03 14:11:04;;;;;;;;;;;7.20;82.00;;;;;;5008137;23;19928;-71
2022/04/03 14:13:31;;;;;;;;;;;7.10;83.10;;;;;;4993018;28;19936;-71
2022/04/03 14:15:57;;;;;;;;;;;7.00;83.90;;;;;;4992846;28;19953;-72
2022/04/03 14:18:27;;;;;;;;;;;7.00;84.30;;;;;;4975084;28;19913;-71
2022/04/03 14:20:54;;;;;;;;;;;7.00;84.30;;;;;;4992844;28;20004;-71
2022/04/03 14:23:30;;;;;;;;;;;7.00;84.20;;;;;;4992781;28;19921;-71
2022/04/03 14:25:55;;;;;;;;;;;7.20;84.90;;;;;;4992713;28;20333;-72
2022/04/03 14:28:21;;;;;;;;;;;7.20;83.80;;;;;;4992578;28;19913;-72
2022/04/03 14:30:47;;;;;;;;;;;7.40;83.50;;;;;;4975364;28;19937;-71
2022/04/03 14:33:13;;;;;;;;;;;7.50;81.50;;;;;;4992896;28;19906;-71